createdAt,value
2018-03-01T11:17:52.594Z,4.1
2018-03-01T11:18:52.488Z,5.2
2018-03-01T11:19:52.836Z,5.2
2018-03-01T11:20:52.266Z,6.9
2018-03-01T11:21:52.626Z,6.9
2018-03-01T11:23:52.319Z,6.9
2018-03-01T11:24:52.475Z,6.9
2018-03-01T11:25:52.440Z,6.9
2018-03-01T11:26:52.441Z,3.3
2018-03-01T11:27:52.390Z,3.3
2018-03-01T11:28:52.414Z,8.0
2018-03-01T11:29:52.426Z,8.0
2018-03-01T11:30:52.660Z,8.0
2018-03-01T11:31:52.641Z,7.7
2018-03-01T11:32:52.672Z,7.7
2018-03-01T11:33:52.693Z,8.0
2018-03-01T11:35:52.451Z,8.0
2018-03-01T11:36:52.401Z,6.6
2018-03-01T11:37:52.415Z,6.6
2018-03-01T11:38:52.192Z,5.2
2018-03-01T11:39:52.703Z,5.2
2018-03-01T11:40:52.232Z,5.2
2018-03-01T11:41:52.294Z,6.6
2018-03-01T11:42:52.424Z,6.6
2018-03-01T11:44:52.437Z,5.0
2018-03-01T11:45:52.488Z,5.0
2018-03-01T11:46:52.658Z,5.0
2018-03-01T11:48:52.311Z,8.3
2018-03-01T11:49:52.482Z,8.3
2018-03-01T11:50:52.431Z,8.3
2018-03-01T11:51:52.469Z,3.8
2018-03-01T11:52:52.694Z,3.8
2018-03-01T11:53:52.478Z,3.8
2018-03-01T11:54:52.470Z,5.8
2018-03-01T11:55:52.453Z,5.8
2018-03-01T11:56:52.453Z,6.3
2018-03-01T11:57:52.455Z,6.3
2018-03-01T11:59:52.660Z,3.6
2018-03-01T12:00:52.613Z,3.6
2018-03-01T12:01:52.486Z,5.0
2018-03-01T12:02:52.480Z,5.0
2018-03-01T12:03:52.328Z,5.0
2018-03-01T12:04:52.731Z,6.3
2018-03-01T12:05:52.696Z,6.3
2018-03-01T12:06:52.737Z,5.2
2018-03-01T12:07:52.286Z,5.2
2018-03-01T12:08:52.532Z,5.2
2018-03-01T12:09:52.687Z,6.3
2018-03-01T12:10:52.727Z,6.3
2018-03-01T12:11:52.507Z,5.0
2018-03-01T12:12:52.507Z,5.0
2018-03-01T12:13:52.726Z,5.0
2018-03-01T12:14:52.357Z,19.4
2018-03-01T12:15:52.306Z,19.4
2018-03-01T12:16:52.494Z,4.7
2018-03-01T12:17:52.744Z,4.7
2018-03-01T12:18:52.348Z,4.7
2018-03-01T12:20:52.523Z,6.6
2018-03-01T12:21:52.504Z,6.6
2018-03-01T12:22:52.483Z,15.0
2018-03-01T12:23:52.506Z,15.0
2018-03-01T12:24:52.504Z,4.4
2018-03-01T12:25:52.507Z,4.4
2018-03-01T12:26:52.307Z,4.4
2018-03-01T12:27:52.562Z,4.4
2018-03-01T12:28:52.566Z,4.4
2018-03-01T12:30:52.334Z,4.7
2018-03-01T12:31:52.535Z,4.7
2018-03-01T12:32:52.757Z,8.6
2018-03-01T12:35:52.577Z,5.8
2018-03-01T12:36:52.552Z,5.8
2018-03-01T12:37:52.662Z,8.0
2018-03-01T12:38:52.790Z,8.0
2018-03-01T12:39:52.766Z,4.7
2018-03-01T12:40:52.560Z,4.7
2018-03-01T12:41:52.391Z,4.7
2018-03-01T12:42:52.540Z,6.1
2018-03-01T12:43:52.566Z,6.1
2018-03-01T12:44:52.561Z,6.1
2018-03-01T12:45:52.791Z,6.1
2018-03-01T12:46:52.608Z,6.1
2018-03-01T12:47:52.545Z,5.8
2018-03-01T12:48:52.583Z,5.8
2018-03-01T12:49:52.368Z,4.1
2018-03-01T12:50:52.811Z,4.1
2018-03-01T12:52:52.801Z,5.2
2018-03-01T12:53:52.575Z,5.2
2018-03-01T12:54:52.555Z,5.2
2018-03-01T12:55:52.565Z,5.8
2018-03-01T12:56:52.547Z,5.8
2018-03-01T12:57:52.846Z,4.7
2018-03-01T12:58:52.799Z,4.7
2018-03-01T12:59:52.789Z,4.7
2018-03-01T13:00:52.602Z,1.9
2018-03-01T13:02:52.615Z,9.1
2018-03-01T13:03:52.431Z,9.1
2018-03-01T13:04:52.560Z,9.1
2018-03-01T13:05:52.598Z,3.8
2018-03-01T13:06:52.370Z,3.8
2018-03-01T13:08:52.652Z,3.8
2018-03-01T13:09:52.426Z,3.8
2018-03-01T13:10:52.816Z,2.5
2018-03-01T13:12:52.441Z,6.1
2018-03-01T13:15:52.603Z,4.7
2018-03-01T13:17:52.854Z,5.0
2018-03-01T13:18:52.436Z,5.0
2018-03-01T13:19:52.887Z,5.0
2018-03-01T13:20:52.423Z,4.7
2018-03-01T13:21:52.376Z,4.7
2018-03-01T13:22:53.134Z,5.0
2018-03-01T13:23:52.667Z,5.0
2018-03-01T13:24:52.698Z,5.0
2018-03-01T13:25:52.681Z,5.8
2018-03-01T13:26:52.922Z,5.8
2018-03-01T13:28:52.655Z,14.7
2018-03-01T13:29:52.714Z,14.7
2018-03-01T13:31:52.855Z,1.9
2018-03-01T13:33:52.481Z,3.8
2018-03-01T13:35:52.634Z,3.3
2018-03-01T13:36:52.967Z,3.3
2018-03-01T13:37:52.564Z,3.3
2018-03-01T13:38:52.826Z,3.6
2018-03-01T13:39:52.629Z,3.6
2018-03-01T13:40:52.662Z,5.2
2018-03-01T13:41:52.867Z,5.2
2018-03-01T13:42:52.672Z,5.2
2018-03-01T13:43:52.653Z,6.9
2018-03-01T13:44:52.654Z,6.9
2018-03-01T13:45:52.617Z,5.0
2018-03-01T13:46:52.652Z,5.0
2018-03-01T13:47:52.905Z,5.0
2018-03-01T13:48:52.674Z,5.0
2018-03-01T13:49:52.675Z,5.0
2018-03-01T13:50:52.865Z,5.0
2018-03-01T13:51:52.618Z,5.0
2018-03-01T13:52:52.603Z,5.0
2018-03-01T13:53:52.732Z,7.5
2018-03-01T13:54:52.907Z,7.5
2018-03-01T13:55:52.489Z,7.5
2018-03-01T13:57:52.917Z,5.8
2018-03-01T13:59:52.464Z,4.7
2018-03-01T14:00:52.651Z,4.7
2018-03-01T14:01:52.454Z,5.5
2018-03-01T14:02:52.745Z,5.5
2018-03-01T14:04:52.898Z,4.7
2018-03-01T14:05:52.453Z,4.7
2018-03-01T14:06:52.931Z,5.8
2018-03-01T14:07:52.704Z,5.8
2018-03-01T14:08:52.662Z,6.3
2018-03-01T14:09:52.881Z,6.3
2018-03-01T14:10:52.697Z,6.3
2018-03-01T14:11:52.760Z,6.3
2018-03-01T14:12:52.672Z,6.3
2018-03-01T14:13:52.680Z,5.5
2018-03-01T14:14:52.960Z,5.5
2018-03-01T14:15:52.696Z,5.5
2018-03-01T14:16:52.718Z,5.5
2018-03-01T14:17:52.750Z,5.5
2018-03-01T14:18:52.713Z,5.8
2018-03-01T14:20:52.535Z,5.8
2018-03-01T14:21:52.908Z,6.3
2018-03-01T14:22:52.571Z,6.3
2018-03-01T14:23:52.960Z,5.2
2018-03-01T14:24:52.711Z,5.2
2018-03-01T14:25:52.945Z,5.2
2018-03-01T14:26:52.574Z,5.2
2018-03-01T14:27:52.987Z,5.2
2018-03-01T14:28:52.855Z,4.7
2018-03-01T14:29:52.705Z,4.7
2018-03-01T14:31:53.006Z,4.1
2018-03-01T14:32:52.717Z,4.1
2018-03-01T14:33:53.020Z,4.1
2018-03-01T14:34:52.782Z,3.8
2018-03-01T14:35:52.610Z,3.8
2018-03-01T14:36:52.526Z,4.7
2018-03-01T14:37:52.602Z,4.7
2018-03-01T14:38:52.568Z,4.7
2018-03-01T14:39:52.546Z,6.1
2018-03-01T14:40:52.728Z,6.1
2018-03-01T14:41:52.958Z,4.7
2018-03-01T14:43:52.762Z,4.7
2018-03-01T14:44:52.771Z,4.4
2018-03-01T14:45:52.758Z,4.4
2018-03-01T14:46:52.571Z,4.4
2018-03-01T14:48:52.806Z,4.4
2018-03-01T14:49:52.779Z,4.1
2018-03-01T14:50:52.645Z,4.1
2018-03-01T14:51:53.012Z,5.2
2018-03-01T14:52:52.773Z,5.2
2018-03-01T14:53:52.945Z,5.2
2018-03-01T14:54:52.767Z,4.4
2018-03-01T14:55:52.773Z,4.4
2018-03-01T14:56:53.029Z,4.4
2018-03-01T14:57:53.052Z,5.2
2018-03-01T14:58:53.007Z,5.2
2018-03-01T14:59:53.002Z,7.5
2018-03-01T15:00:52.813Z,7.5
2018-03-01T15:01:52.607Z,7.5
2018-03-01T15:02:52.600Z,5.2
2018-03-01T15:03:53.066Z,5.2
2018-03-01T15:04:52.773Z,5.0
2018-03-01T15:05:52.891Z,5.0
2018-03-01T15:17:44.444Z,5.0
2018-03-01T15:17:55.086Z,5.0
2018-03-01T15:18:54.783Z,3.6
2018-03-01T15:19:54.724Z,5.5
2018-03-01T15:20:55.024Z,5.5
2018-03-01T15:22:54.908Z,5.0
2018-03-01T15:23:56.668Z,5.0
2018-03-01T15:25:14.567Z,2.5
2018-03-01T15:26:55.149Z,2.5
2018-03-01T15:27:55.202Z,4.7
2018-03-01T15:28:55.237Z,4.7
2018-03-01T15:29:55.144Z,4.7
2018-03-01T15:30:55.276Z,4.7
2018-03-01T15:31:55.440Z,4.7
2018-03-01T15:32:55.415Z,3.8
2018-03-01T15:34:54.900Z,3.8
2018-03-01T15:35:55.103Z,3.3
2018-03-01T15:36:54.910Z,3.3
2018-03-01T15:37:58.005Z,3.6
2018-03-01T15:38:55.203Z,3.6
2018-03-01T15:39:54.941Z,3.6
2018-03-01T15:40:54.754Z,4.1
2018-03-01T15:41:54.737Z,4.1
2018-03-01T15:42:54.874Z,0.2
2018-03-01T15:43:54.975Z,0.2
2018-03-01T15:45:55.113Z,3.3
2018-03-01T15:47:55.191Z,4.7
2018-03-01T15:48:54.922Z,4.7
2018-03-01T15:49:55.181Z,4.7
2018-03-01T15:50:54.767Z,4.7
2018-03-01T15:51:54.732Z,4.7
2018-03-01T15:53:54.751Z,6.1
2018-03-01T15:54:54.913Z,6.1
2018-03-01T15:55:54.723Z,5.5
2018-03-01T15:57:54.692Z,3.0
2018-03-01T15:58:54.793Z,3.0
2018-03-01T15:59:54.857Z,3.0
2018-03-01T16:00:54.975Z,4.7
2018-03-01T16:01:54.910Z,4.7
2018-03-01T16:02:54.753Z,4.7
2018-03-01T16:03:55.270Z,3.3
2018-03-01T16:04:55.175Z,3.3
2018-03-01T16:05:55.201Z,3.6
2018-03-01T16:06:54.783Z,3.6
2018-03-01T16:07:55.155Z,3.6
2018-03-01T16:08:54.892Z,5.2
2018-03-01T16:09:54.758Z,5.2
2018-03-01T16:10:55.040Z,3.8
2018-03-01T16:12:54.780Z,3.8
2018-03-01T16:13:55.375Z,5.2
2018-03-01T16:14:55.087Z,5.2
2018-03-01T16:15:54.972Z,3.8
2018-03-01T16:16:54.960Z,3.8
2018-03-01T16:17:55.305Z,3.8
2018-03-01T16:18:56.450Z,7.5
2018-03-01T16:19:54.832Z,7.5
2018-03-01T16:20:55.196Z,2.2
2018-03-01T16:21:54.946Z,2.2
2018-03-01T16:22:55.130Z,2.2
2018-03-01T16:23:54.897Z,2.7
2018-03-01T16:24:54.992Z,2.7
2018-03-01T16:25:54.989Z,3.6
2018-03-01T16:26:55.016Z,3.6
2018-03-01T16:27:54.988Z,3.6
2018-03-01T16:28:54.912Z,5.0
2018-03-01T16:30:55.363Z,5.0
2018-03-01T16:31:55.421Z,5.0
2018-03-01T16:32:54.842Z,5.0
2018-03-01T16:33:54.975Z,18.3
2018-03-01T16:34:54.811Z,18.3
2018-03-01T16:35:55.038Z,18.3
2018-03-01T16:36:55.051Z,6.1
2018-03-01T16:37:54.819Z,6.1
2018-03-01T16:38:55.256Z,3.6
2018-03-01T16:39:54.958Z,3.6
2018-03-01T16:40:54.994Z,3.6
2018-03-01T16:41:55.040Z,29.4
2018-03-01T16:42:55.237Z,29.4
2018-03-01T16:44:54.975Z,8.0
2018-03-01T16:45:54.954Z,8.0
2018-03-01T16:46:54.817Z,5.8
2018-03-01T16:47:55.229Z,5.8
2018-03-01T16:48:55.031Z,3.8
2018-03-01T16:49:54.963Z,3.8
2018-03-01T16:50:55.024Z,3.8
2018-03-01T16:51:55.003Z,3.0
2018-03-01T16:52:55.252Z,3.0
2018-03-01T16:53:55.081Z,5.5
2018-03-01T16:54:55.006Z,5.5
2018-03-01T16:55:54.983Z,5.5
2018-03-01T16:56:55.084Z,5.2
2018-03-01T16:57:54.819Z,5.2
2018-03-01T16:58:55.013Z,4.7
2018-03-01T17:00:55.294Z,4.7
2018-03-01T17:01:54.846Z,5.0
2018-03-01T17:04:54.895Z,3.8
2018-03-01T17:05:54.853Z,3.8
2018-03-01T17:06:55.049Z,3.8
2018-03-01T17:08:55.087Z,3.6
2018-03-01T17:09:55.037Z,5.0
2018-03-01T17:10:55.110Z,5.0
2018-03-01T17:11:55.097Z,5.0
2018-03-01T17:12:55.063Z,5.0
2018-03-01T17:13:55.286Z,5.0
2018-03-01T17:14:55.282Z,4.4
2018-03-01T17:15:55.310Z,4.4
2018-03-01T17:16:55.049Z,5.0
2018-03-01T17:17:55.083Z,5.0
2018-03-01T17:18:55.187Z,5.0
2018-03-01T17:19:55.279Z,5.0
2018-03-01T17:20:55.043Z,5.0
2018-03-01T17:21:55.336Z,5.8
2018-03-01T17:23:55.309Z,5.8
2018-03-01T17:24:55.078Z,2.7
2018-03-01T17:25:55.300Z,2.7
2018-03-01T17:26:55.057Z,6.1
2018-03-01T17:27:56.104Z,6.1
2018-03-01T17:28:55.079Z,6.1
2018-03-01T17:29:55.105Z,7.7
2018-03-01T17:30:55.101Z,7.7
2018-03-01T17:31:55.110Z,7.7
2018-03-01T17:32:55.155Z,5.0
2018-03-01T17:33:55.019Z,5.0
2018-03-01T17:34:55.089Z,5.2
2018-03-01T17:35:54.906Z,5.2
2018-03-01T17:36:54.858Z,5.2
2018-03-01T17:37:55.099Z,5.0
2018-03-01T17:38:55.128Z,5.0
2018-03-01T17:39:55.078Z,3.8
2018-03-01T17:41:55.097Z,3.8
2018-03-01T17:42:55.156Z,5.0
2018-03-01T17:43:55.129Z,5.0
2018-03-01T17:44:55.102Z,4.7
2018-03-01T17:45:54.902Z,4.7
2018-03-01T17:46:55.342Z,4.7
2018-03-01T17:47:55.505Z,4.1
2018-03-01T17:48:54.990Z,4.1
2018-03-01T17:51:55.083Z,5.8
2018-03-01T17:53:54.945Z,5.8
2018-03-01T17:55:54.955Z,3.6
2018-03-01T17:56:55.384Z,3.6
2018-03-01T17:57:55.148Z,3.6
2018-03-01T17:58:55.405Z,3.6
2018-03-01T18:00:55.357Z,1.9
2018-03-01T18:01:55.130Z,1.9
2018-03-01T18:02:54.949Z,4.4
2018-03-01T18:03:55.183Z,4.4
2018-03-01T18:04:55.325Z,4.4
2018-03-01T18:05:55.179Z,6.1
2018-03-01T18:06:55.341Z,6.1
2018-03-01T18:07:54.982Z,5.0
2018-03-01T18:09:55.315Z,5.0
2018-03-01T18:10:55.181Z,23.0
2018-03-01T18:11:55.191Z,23.0
2018-03-01T18:12:54.959Z,4.1
2018-03-01T18:13:54.991Z,4.1
2018-03-01T18:14:55.156Z,4.1
2018-03-01T18:15:54.995Z,2.2
2018-03-01T18:16:54.999Z,2.2
2018-03-01T18:17:55.169Z,3.6
2018-03-01T18:18:55.269Z,3.6
2018-03-01T18:20:55.212Z,3.6
2018-03-01T18:21:55.177Z,3.6
2018-03-01T18:22:55.230Z,2.7
2018-03-01T18:23:55.094Z,2.7
2018-03-01T18:24:55.350Z,2.7
2018-03-01T18:25:55.220Z,2.5
2018-03-01T18:26:55.196Z,2.5
2018-03-01T18:27:55.182Z,6.6
2018-03-01T18:28:55.051Z,6.6
2018-03-01T18:29:55.129Z,6.6
2018-03-01T18:30:55.385Z,22.5
2018-03-01T18:31:55.164Z,22.5
2018-03-01T18:32:55.260Z,22.5
2018-03-01T18:33:55.025Z,22.5
2018-03-01T18:35:55.194Z,4.7
2018-03-01T18:36:55.479Z,4.7
2018-03-01T18:37:55.228Z,4.7
2018-03-01T18:38:55.414Z,6.3
2018-03-01T18:39:55.009Z,6.3
2018-03-01T18:40:55.015Z,6.1
2018-03-01T18:41:55.240Z,6.1
2018-03-01T18:42:55.189Z,6.1
2018-03-01T18:43:55.211Z,16.3
2018-03-01T18:44:55.412Z,16.3
2018-03-01T18:45:55.424Z,4.1
2018-03-01T18:46:55.039Z,4.1
2018-03-01T18:47:55.289Z,4.1
2018-03-01T18:48:56.042Z,5.2
2018-03-01T18:49:55.357Z,5.2
2018-03-01T18:50:55.248Z,1.6
2018-03-01T18:51:55.455Z,1.6
2018-03-01T18:52:55.229Z,1.6
2018-03-01T18:53:55.458Z,4.1
2018-03-01T18:54:55.744Z,4.1
2018-03-01T18:55:55.452Z,4.1
2018-03-01T18:56:55.470Z,3.3
2018-03-01T18:57:55.240Z,3.3
2018-03-01T18:59:55.120Z,5.0
2018-03-01T19:00:55.243Z,4.4
2018-03-01T19:01:55.508Z,4.4
2018-03-01T19:02:55.292Z,4.4
2018-03-01T19:03:55.165Z,0.8
2018-03-01T19:04:55.223Z,0.8
2018-03-01T19:05:55.420Z,0.8
2018-03-01T19:06:55.324Z,1.3
2018-03-01T19:07:56.174Z,1.3
2018-03-01T19:08:55.321Z,3.3
2018-03-01T19:09:55.174Z,3.3
2018-03-01T19:10:55.231Z,3.3
2018-03-01T19:11:55.082Z,3.8
2018-03-01T19:12:55.516Z,3.8
2018-03-01T19:13:55.459Z,3.8
2018-03-01T19:15:55.630Z,3.8
2018-03-01T19:16:55.680Z,4.1
2018-03-01T19:17:55.304Z,4.1
2018-03-01T19:18:55.898Z,3.6
2018-03-01T19:19:55.719Z,3.6
2018-03-01T19:20:55.684Z,3.6
2018-03-01T19:21:55.678Z,4.1
2018-03-01T19:22:55.654Z,4.1
2018-03-01T19:23:55.751Z,4.1
2018-03-01T19:24:55.366Z,4.1
2018-03-01T19:25:55.553Z,4.1
2018-03-01T19:26:55.513Z,3.6
2018-03-01T19:27:55.516Z,3.6
2018-03-01T19:28:55.735Z,4.1
2018-03-01T19:29:55.315Z,4.1
2018-03-01T19:30:55.779Z,4.1
2018-03-01T19:31:55.490Z,5.8
2018-03-01T19:32:55.574Z,5.8
2018-03-01T19:33:55.760Z,5.8
2018-03-01T19:34:55.366Z,16.9
2018-03-01T19:35:55.762Z,16.9
2018-03-01T19:36:55.521Z,6.6
2018-03-01T19:37:55.581Z,6.6
2018-03-01T19:38:55.517Z,6.6
2018-03-01T19:39:55.340Z,6.6
2018-03-01T19:40:55.523Z,5.2
2018-03-01T19:41:55.564Z,5.5
2018-03-01T19:42:55.282Z,5.5
2018-03-01T19:43:55.144Z,5.5
2018-03-01T19:44:55.396Z,6.6
2018-03-01T19:45:55.339Z,6.6
2018-03-01T19:46:55.394Z,5.0
2018-03-01T19:47:55.314Z,5.0
2018-03-01T19:48:55.365Z,5.0
2018-03-01T19:49:55.355Z,6.3
2018-03-01T19:50:55.594Z,6.3
2018-03-01T19:51:55.816Z,3.8
2018-03-01T19:52:55.498Z,3.8
2018-03-01T19:53:55.829Z,3.8
2018-03-01T19:54:55.353Z,3.8
2018-03-01T19:55:55.505Z,3.8
2018-03-01T19:56:55.738Z,2.7
2018-03-01T19:57:55.779Z,2.7
2018-03-01T19:58:55.366Z,2.7
2018-03-01T19:59:55.356Z,6.6
2018-03-01T20:00:55.538Z,6.6
2018-03-01T20:01:55.838Z,4.4
2018-03-01T20:02:55.763Z,4.4
2018-03-01T20:03:55.861Z,4.4
2018-03-01T20:05:55.528Z,4.4
2018-03-01T20:06:55.569Z,4.4
2018-03-01T20:07:55.570Z,1.9
2018-03-01T20:09:01.813Z,1.9
2018-03-01T20:10:55.489Z,19.7
2018-03-01T20:12:55.476Z,5.5
2018-03-01T20:13:55.840Z,5.5
2018-03-01T20:14:55.637Z,6.9
2018-03-01T20:15:55.863Z,6.9
2018-03-01T20:16:55.814Z,6.9
2018-03-01T20:17:55.772Z,5.8
2018-03-01T20:18:55.777Z,5.8
2018-03-01T20:19:55.442Z,5.0
2018-03-01T20:20:55.828Z,5.0
2018-03-01T20:21:55.608Z,5.0
2018-03-01T20:22:55.681Z,6.1
2018-03-01T20:23:57.653Z,6.1
2018-03-01T20:24:58.061Z,3.8
2018-03-01T20:25:58.371Z,3.8
2018-03-01T20:26:55.887Z,3.8
2018-03-01T20:27:55.626Z,3.8
2018-03-01T20:28:55.724Z,3.8
2018-03-01T20:30:55.448Z,6.9
2018-03-01T20:31:55.877Z,6.9
2018-03-01T20:33:56.220Z,5.5
2018-03-01T20:34:55.596Z,5.5
2018-03-01T20:35:56.244Z,5.5
2018-03-01T20:36:55.617Z,5.5
2018-03-01T20:37:55.619Z,2.7
2018-03-01T20:38:55.693Z,2.7
2018-03-01T20:41:55.657Z,0.8
2018-03-01T20:42:55.277Z,0.8
2018-03-01T20:43:55.716Z,0.8
2018-03-01T20:44:55.256Z,0.8
2018-03-01T20:46:55.406Z,4.1
2018-03-01T20:47:55.500Z,6.3
2018-03-01T20:48:55.877Z,6.3
2018-03-01T20:49:55.455Z,6.3
2018-03-01T20:50:55.409Z,5.8
2018-03-01T20:51:55.440Z,5.8
2018-03-01T20:52:55.541Z,5.8
2018-03-01T20:53:55.477Z,5.8
2018-03-01T20:54:55.817Z,5.8
2018-03-01T20:57:55.692Z,1.3
2018-03-01T20:58:55.294Z,1.3
2018-03-01T20:59:55.247Z,1.3
2018-03-01T21:01:55.469Z,6.3
2018-03-01T21:02:55.309Z,4.4
2018-03-01T21:03:55.725Z,4.4
2018-03-01T21:04:55.462Z,4.4
2018-03-01T21:05:55.451Z,4.1
2018-03-01T21:06:55.326Z,4.1
2018-03-01T21:07:55.545Z,4.1
2018-03-01T21:08:55.479Z,6.3
2018-03-01T21:09:55.741Z,6.3
2018-03-01T21:10:55.761Z,4.4
2018-03-01T21:11:55.292Z,4.4
2018-03-01T21:12:55.720Z,4.4
2018-03-01T21:13:55.304Z,3.6
2018-03-01T21:14:55.469Z,3.6
2018-03-01T21:15:55.558Z,3.6
2018-03-01T21:16:55.482Z,3.6
2018-03-01T21:17:55.505Z,3.6
2018-03-01T21:18:55.274Z,7.2
2018-03-01T21:21:55.683Z,3.6
2018-03-01T21:22:55.709Z,3.6
2018-03-01T21:23:55.514Z,4.4
2018-03-01T21:24:55.530Z,4.4
2018-03-01T21:25:55.750Z,4.4
2018-03-01T21:26:55.813Z,4.4
2018-03-01T21:27:55.407Z,4.4
2018-03-01T21:28:55.494Z,3.6
2018-03-01T21:30:55.584Z,3.6
2018-03-01T21:31:55.788Z,3.6
2018-03-01T21:32:55.331Z,3.6
2018-03-01T21:33:55.325Z,5.8
2018-03-01T21:34:55.536Z,5.8
2018-03-01T21:35:55.803Z,5.8
2018-03-01T21:36:55.759Z,5.0
2018-03-01T21:37:55.797Z,5.0
2018-03-01T21:38:55.546Z,4.4
2018-03-01T21:41:55.555Z,6.6
2018-03-01T21:42:55.370Z,6.6
2018-03-01T21:43:55.781Z,15.8
2018-03-01T21:44:55.795Z,15.8
2018-03-01T21:45:55.339Z,15.8
2018-03-01T21:46:55.812Z,8.3
2018-03-01T21:47:55.780Z,8.3
2018-03-01T21:48:56.177Z,5.2
2018-03-01T21:49:55.548Z,5.2
2018-03-01T21:50:55.644Z,5.2
2018-03-01T21:51:55.457Z,5.2
2018-03-01T21:52:55.462Z,5.2
2018-03-01T21:53:55.988Z,3.8
2018-03-01T21:54:55.551Z,3.8
2018-03-01T21:55:55.836Z,3.8
2018-03-01T21:56:55.758Z,3.8
2018-03-01T21:57:55.773Z,3.8
2018-03-01T21:58:55.561Z,3.8
2018-03-01T21:59:55.550Z,3.8
2018-03-01T22:00:55.743Z,3.8
2018-03-01T22:01:55.565Z,5.2
2018-03-01T22:02:55.656Z,5.2
2018-03-01T22:03:55.615Z,4.4
2018-03-01T22:04:55.411Z,4.4
2018-03-01T22:05:55.618Z,4.4
2018-03-01T22:06:55.600Z,5.0
2018-03-01T22:08:55.661Z,5.0
2018-03-01T22:09:55.825Z,1.9
2018-03-01T22:10:55.698Z,1.9
2018-03-01T22:11:55.612Z,3.6
2018-03-01T22:12:55.617Z,3.6
2018-03-01T22:13:55.653Z,3.6
2018-03-01T22:14:55.879Z,4.4
2018-03-01T22:15:55.954Z,4.4
2018-03-01T22:16:55.779Z,3.6
2018-03-01T22:17:55.692Z,3.6
2018-03-01T22:18:55.668Z,3.6
2018-03-01T22:19:55.954Z,2.7
2018-03-01T22:20:55.849Z,2.7
2018-03-01T22:21:55.626Z,2.7
2018-03-01T22:22:55.632Z,2.7
2018-03-01T22:24:55.928Z,4.7
2018-03-01T22:25:56.155Z,4.7
2018-03-01T22:26:56.182Z,4.1
2018-03-01T22:27:55.901Z,4.1
2018-03-01T22:28:55.714Z,4.1
2018-03-01T22:29:55.787Z,5.2
2018-03-01T22:30:56.090Z,5.2
2018-03-01T22:31:56.132Z,3.0
2018-03-01T22:32:55.770Z,3.0
2018-03-01T22:33:55.948Z,3.0
2018-03-01T22:34:55.931Z,5.5
2018-03-01T22:35:55.752Z,5.5
2018-03-01T22:36:56.129Z,5.5
2018-03-01T22:37:55.917Z,5.5
2018-03-01T22:38:55.759Z,5.5
2018-03-01T22:39:55.924Z,23.6
2018-03-01T22:40:55.814Z,23.6
2018-03-01T22:41:55.921Z,23.6
2018-03-01T22:42:55.920Z,5.5
2018-03-01T22:43:55.956Z,5.5
2018-03-01T22:44:55.791Z,16.3
2018-03-01T22:45:55.933Z,16.3
2018-03-01T22:46:55.803Z,16.3
2018-03-01T22:47:56.198Z,6.3
2018-03-01T22:49:55.837Z,4.1
2018-03-01T22:50:55.949Z,4.1
2018-03-01T22:51:55.855Z,4.1
2018-03-01T22:52:55.936Z,4.4
2018-03-01T22:53:55.788Z,4.4
2018-03-01T22:54:55.900Z,2.5
2018-03-01T22:55:55.750Z,2.5
2018-03-01T22:56:55.900Z,2.5
2018-03-01T22:57:56.211Z,5.8
2018-03-01T22:58:55.892Z,5.8
2018-03-01T22:59:55.881Z,5.2
2018-03-01T23:00:55.910Z,5.2
2018-03-01T23:01:56.178Z,5.2
2018-03-01T23:02:55.742Z,4.4
2018-03-01T23:04:55.916Z,3.3
2018-03-01T23:05:56.169Z,3.3
2018-03-01T23:06:55.776Z,3.3
2018-03-01T23:07:55.944Z,3.8
2018-03-01T23:08:55.911Z,3.8
2018-03-01T23:09:55.926Z,3.8
2018-03-01T23:10:55.970Z,5.5
2018-03-01T23:11:56.266Z,5.5
2018-03-01T23:12:56.014Z,6.6
2018-03-01T23:13:55.990Z,6.6
2018-03-01T23:15:56.231Z,6.1
2018-03-01T23:16:55.960Z,6.1
2018-03-01T23:17:55.946Z,6.1
2018-03-01T23:18:55.864Z,6.1
2018-03-01T23:19:55.782Z,6.1
2018-03-01T23:20:55.858Z,4.4
2018-03-01T23:21:56.017Z,4.4
2018-03-01T23:22:56.231Z,6.1
2018-03-01T23:23:55.735Z,6.1
2018-03-01T23:24:56.224Z,6.1
2018-03-01T23:25:55.968Z,3.6
2018-03-01T23:26:55.754Z,3.6
2018-03-01T23:27:55.938Z,3.8
2018-03-01T23:28:56.181Z,3.8
2018-03-01T23:30:55.943Z,3.8
2018-03-01T23:31:55.761Z,3.8
2018-03-01T23:32:56.277Z,4.4
2018-03-01T23:33:55.991Z,4.4
2018-03-01T23:34:56.114Z,4.4
2018-03-01T23:36:56.015Z,4.7
2018-03-01T23:37:55.997Z,4.7
2018-03-01T23:38:56.223Z,3.3
2018-03-01T23:39:56.167Z,3.3
2018-03-01T23:41:56.216Z,4.4
2018-03-01T23:42:55.975Z,4.4
2018-03-01T23:44:56.049Z,5.8
2018-03-01T23:45:56.066Z,1.9
2018-03-01T23:46:56.270Z,1.9
2018-03-01T23:47:56.066Z,1.9
2018-03-01T23:48:56.045Z,2.2
2018-03-01T23:49:55.852Z,2.2
2018-03-01T23:51:56.235Z,4.4
2018-03-01T23:53:56.000Z,1.6
2018-03-01T23:54:56.284Z,1.6
2018-03-01T23:55:56.345Z,1.9
2018-03-01T23:57:56.276Z,1.9
2018-03-01T23:58:55.897Z,1.9
2018-03-01T23:59:56.051Z,1.9
